Details for Jet2 at EGNT




Go Back


Latest METAR
Local Time

EGNT 221750Z 01010KT 9999 BKN011 10/07 Q1024

22/05/2018, 18:57:26

Description
Results
Jet2 Logo
Number of Pilots based at EGNT
1 Pilots Based here
Number of Jet2 Flights Departed from EGNT
0 Flights Departed
Number of Jet2 Flights Arrived at EGNT
0 Flights Arrived
Number of Jet2 Schedules Departing from EGNT
32 Schedules
Number of Jet2 Schedules Arriving at EGNT
32 Schedules
Number of Jet2 Schedules Departing from EGNT availible today
5 Schedules Today
Number of Jet2 Schedules Arriving at EGNT availible today
5 Schedules Today
Average Landing Rate at EGNT
-264 fpm
Jet2 Average Landing Rate at EGNT
0 fpm
Total Fuel Purchased at EGNT by Jet2
0.00 kgs / 0.00 lbs

Pilots Based at EGNT


Pilot ID
Pilot Name
Pilot Rank
No. of Flights
No. of Flying Hours
Michael Gow
119
366.46
Content